sensor_id;sensor_type;location;lat;lon;timestamp;P1;durP1;ratioP1;P2;durP2;ratioP2
16624;SDS011;8426;48.496;9.098;2022-11-25T00:00:30;9.10;;;4.20;;
16624;SDS011;8426;48.496;9.098;2022-11-25T00:05:35;9.10;;;4.00;;
16624;SDS011;8426;48.496;9.098;2022-11-25T00:10:39;7.90;;;4.40;;
16624;SDS011;8426;48.496;9.098;2022-11-25T00:15:43;9.93;;;5.33;;
16624;SDS011;8426;48.496;9.098;2022-11-25T00:20:48;8.27;;;4.40;;
16624;SDS011;8426;48.496;9.098;2022-11-25T00:25:54;9.20;;;4.73;;
16624;SDS011;8426;48.496;9.098;2022-11-25T00:31:02;6.53;;;3.87;;
16624;SDS011;8426;48.496;9.098;2022-11-25T00:36:12;9.57;;;4.27;;
16624;SDS011;8426;48.496;9.098;2022-11-25T00:41:18;11.53;;;4.17;;
16624;SDS011;8426;48.496;9.098;2022-11-25T00:46:39;7.87;;;4.63;;
16624;SDS011;8426;48.496;9.098;2022-11-25T00:51:44;7.07;;;4.37;;
16624;SDS011;8426;48.496;9.098;2022-11-25T00:56:47;9.80;;;4.27;;
16624;SDS011;8426;48.496;9.098;2022-11-25T01:01:51;9.87;;;4.97;;
16624;SDS011;8426;48.496;9.098;2022-11-25T01:06:56;8.87;;;4.13;;
16624;SDS011;8426;48.496;9.098;2022-11-25T01:12:00;10.77;;;5.17;;
16624;SDS011;8426;48.496;9.098;2022-11-25T01:17:04;8.43;;;4.90;;
16624;SDS011;8426;48.496;9.098;2022-11-25T01:22:09;10.67;;;5.53;;
16624;SDS011;8426;48.496;9.098;2022-11-25T01:27:13;14.37;;;5.77;;
16624;SDS011;8426;48.496;9.098;2022-11-25T01:32:16;23.20;;;6.90;;
16624;SDS011;8426;48.496;9.098;2022-11-25T01:37:21;13.87;;;6.37;;
16624;SDS011;8426;48.496;9.098;2022-11-25T01:42:26;15.93;;;7.07;;
16624;SDS011;8426;48.496;9.098;2022-11-25T01:47:31;10.73;;;5.20;;
16624;SDS011;8426;48.496;9.098;2022-11-25T01:52:37;9.13;;;4.97;;
16624;SDS011;8426;48.496;9.098;2022-11-25T01:57:47;13.60;;;4.70;;
16624;SDS011;8426;48.496;9.098;2022-11-25T02:02:57;9.30;;;5.03;;
16624;SDS011;8426;48.496;9.098;2022-11-25T02:08:04;12.10;;;5.03;;
16624;SDS011;8426;48.496;9.098;2022-11-25T02:13:09;12.00;;;4.83;;
16624;SDS011;8426;48.496;9.098;2022-11-25T02:18:13;10.80;;;4.40;;
16624;SDS011;8426;48.496;9.098;2022-11-25T02:23:21;11.03;;;5.33;;
16624;SDS011;8426;48.496;9.098;2022-11-25T02:28:31;11.17;;;4.80;;
16624;SDS011;8426;48.496;9.098;2022-11-25T02:33:35;11.20;;;5.37;;
16624;SDS011;8426;48.496;9.098;2022-11-25T02:38:41;7.57;;;4.53;;
16624;SDS011;8426;48.496;9.098;2022-11-25T02:43:48;8.53;;;4.70;;
16624;SDS011;8426;48.496;9.098;2022-11-25T02:48:52;9.57;;;4.27;;
16624;SDS011;8426;48.496;9.098;2022-11-25T02:54:13;15.30;;;5.20;;
16624;SDS011;8426;48.496;9.098;2022-11-25T02:59:18;16.93;;;5.87;;
16624;SDS011;8426;48.496;9.098;2022-11-25T03:04:21;13.97;;;4.97;;
16624;SDS011;8426;48.496;9.098;2022-11-25T03:09:25;10.73;;;5.00;;
16624;SDS011;8426;48.496;9.098;2022-11-25T03:14:31;11.97;;;4.87;;
16624;SDS011;8426;48.496;9.098;2022-11-25T03:19:35;12.53;;;5.27;;
16624;SDS011;8426;48.496;9.098;2022-11-25T03:24:38;11.00;;;5.10;;
16624;SDS011;8426;48.496;9.098;2022-11-25T03:29:43;9.23;;;4.87;;
16624;SDS011;8426;48.496;9.098;2022-11-25T03:34:46;10.37;;;4.83;;
16624;SDS011;8426;48.496;9.098;2022-11-25T03:39:51;13.27;;;4.63;;
16624;SDS011;8426;48.496;9.098;2022-11-25T03:44:56;11.47;;;5.23;;
16624;SDS011;8426;48.496;9.098;2022-11-25T03:49:59;13.97;;;6.00;;
16624;SDS011;8426;48.496;9.098;2022-11-25T03:55:02;13.10;;;6.07;;
16624;SDS011;8426;48.496;9.098;2022-11-25T04:00:10;12.07;;;5.80;;
16624;SDS011;8426;48.496;9.098;2022-11-25T04:05:15;12.70;;;5.80;;
16624;SDS011;8426;48.496;9.098;2022-11-25T04:10:18;14.93;;;5.57;;
16624;SDS011;8426;48.496;9.098;2022-11-25T04:15:23;9.10;;;4.90;;
16624;SDS011;8426;48.496;9.098;2022-11-25T04:20:27;16.80;;;5.80;;
16624;SDS011;8426;48.496;9.098;2022-11-25T04:25:31;11.27;;;5.17;;
16624;SDS011;8426;48.496;9.098;2022-11-25T04:30:37;13.27;;;5.23;;
16624;SDS011;8426;48.496;9.098;2022-11-25T04:35:41;10.07;;;4.60;;
16624;SDS011;8426;48.496;9.098;2022-11-25T04:40:44;8.13;;;5.03;;
16624;SDS011;8426;48.496;9.098;2022-11-25T04:45:49;8.13;;;4.37;;
16624;SDS011;8426;48.496;9.098;2022-11-25T04:51:13;11.07;;;4.80;;
16624;SDS011;8426;48.496;9.098;2022-11-25T04:56:18;9.47;;;4.80;;
16624;SDS011;8426;48.496;9.098;2022-11-25T05:01:23;9.17;;;4.60;;
16624;SDS011;8426;48.496;9.098;2022-11-25T05:06:26;11.80;;;4.73;;
16624;SDS011;8426;48.496;9.098;2022-11-25T05:11:31;8.57;;;4.33;;
16624;SDS011;8426;48.496;9.098;2022-11-25T05:16:36;9.63;;;5.20;;
16624;SDS011;8426;48.496;9.098;2022-11-25T05:21:40;7.63;;;4.20;;
16624;SDS011;8426;48.496;9.098;2022-11-25T05:26:43;8.47;;;4.70;;
16624;SDS011;8426;48.496;9.098;2022-11-25T05:31:49;10.17;;;4.60;;
16624;SDS011;8426;48.496;9.098;2022-11-25T05:36:52;11.30;;;4.87;;
16624;SDS011;8426;48.496;9.098;2022-11-25T05:41:58;10.07;;;5.20;;
16624;SDS011;8426;48.496;9.098;2022-11-25T05:47:04;6.67;;;3.97;;
16624;SDS011;8426;48.496;9.098;2022-11-25T05:52:07;10.17;;;4.40;;
16624;SDS011;8426;48.496;9.098;2022-11-25T05:57:11;10.97;;;4.97;;
16624;SDS011;8426;48.496;9.098;2022-11-25T06:02:15;11.43;;;4.90;;
16624;SDS011;8426;48.496;9.098;2022-11-25T06:07:19;9.97;;;4.93;;
16624;SDS011;8426;48.496;9.098;2022-11-25T06:12:24;10.83;;;5.07;;
16624;SDS011;8426;48.496;9.098;2022-11-25T06:17:29;9.93;;;4.97;;
16624;SDS011;8426;48.496;9.098;2022-11-25T06:22:32;14.10;;;5.37;;
16624;SDS011;8426;48.496;9.098;2022-11-25T06:27:35;8.00;;;4.60;;
16624;SDS011;8426;48.496;9.098;2022-11-25T06:38:08;9.43;;;4.90;;
16624;SDS011;8426;48.496;9.098;2022-11-25T06:43:13;19.58;;;9.52;;
16624;SDS011;8426;48.496;9.098;2022-11-25T06:48:20;10.53;;;5.17;;
16624;SDS011;8426;48.496;9.098;2022-11-25T06:53:24;8.93;;;4.70;;
16624;SDS011;8426;48.496;9.098;2022-11-25T06:58:28;13.17;;;5.67;;
16624;SDS011;8426;48.496;9.098;2022-11-25T07:03:38;9.37;;;4.50;;
16624;SDS011;8426;48.496;9.098;2022-11-25T07:08:43;12.93;;;5.47;;
16624;SDS011;8426;48.496;9.098;2022-11-25T07:13:47;12.50;;;4.57;;
16624;SDS011;8426;48.496;9.098;2022-11-25T07:18:57;10.40;;;5.10;;
16624;SDS011;8426;48.496;9.098;2022-11-25T07:24:03;11.57;;;5.37;;
16624;SDS011;8426;48.496;9.098;2022-11-25T07:29:10;16.33;;;5.03;;
16624;SDS011;8426;48.496;9.098;2022-11-25T07:34:37;10.23;;;5.67;;
16624;SDS011;8426;48.496;9.098;2022-11-25T07:39:41;10.50;;;4.67;;
16624;SDS011;8426;48.496;9.098;2022-11-25T07:44:44;12.50;;;5.20;;
16624;SDS011;8426;48.496;9.098;2022-11-25T07:49:50;10.20;;;5.40;;
16624;SDS011;8426;48.496;9.098;2022-11-25T07:55:17;17.93;;;5.87;;
16624;SDS011;8426;48.496;9.098;2022-11-25T08:00:44;10.97;;;5.17;;
16624;SDS011;8426;48.496;9.098;2022-11-25T08:05:50;13.83;;;5.43;;
16624;SDS011;8426;48.496;9.098;2022-11-25T08:10:53;12.73;;;4.73;;
16624;SDS011;8426;48.496;9.098;2022-11-25T08:15:57;9.73;;;4.50;;
16624;SDS011;8426;48.496;9.098;2022-11-25T08:21:04;11.60;;;5.13;;
16624;SDS011;8426;48.496;9.098;2022-11-25T08:26:12;10.90;;;4.93;;
16624;SDS011;8426;48.496;9.098;2022-11-25T08:31:18;7.97;;;4.73;;
16624;SDS011;8426;48.496;9.098;2022-11-25T08:36:24;9.47;;;4.63;;
16624;SDS011;8426;48.496;9.098;2022-11-25T08:41:31;9.55;;;5.03;;
16624;SDS011;8426;48.496;9.098;2022-11-25T08:46:36;13.30;;;5.90;;
16624;SDS011;8426;48.496;9.098;2022-11-25T08:51:41;7.63;;;4.55;;
16624;SDS011;8426;48.496;9.098;2022-11-25T08:56:46;7.43;;;4.20;;
16624;SDS011;8426;48.496;9.098;2022-11-25T09:01:49;5.95;;;3.65;;
16624;SDS011;8426;48.496;9.098;2022-11-25T09:06:55;7.90;;;3.85;;
16624;SDS011;8426;48.496;9.098;2022-11-25T09:11:59;9.95;;;3.60;;
16624;SDS011;8426;48.496;9.098;2022-11-25T09:17:06;9.30;;;3.78;;
16624;SDS011;8426;48.496;9.098;2022-11-25T09:22:13;9.48;;;3.30;;
16624;SDS011;8426;48.496;9.098;2022-11-25T09:27:17;6.32;;;2.95;;
16624;SDS011;8426;48.496;9.098;2022-11-25T09:32:20;11.80;;;3.13;;
16624;SDS011;8426;48.496;9.098;2022-11-25T09:37:25;9.90;;;2.47;;
16624;SDS011;8426;48.496;9.098;2022-11-25T09:42:31;4.78;;;2.60;;
16624;SDS011;8426;48.496;9.098;2022-11-25T09:48:01;5.70;;;1.80;;
16624;SDS011;8426;48.496;9.098;2022-11-25T09:53:25;8.98;;;2.42;;
16624;SDS011;8426;48.496;9.098;2022-11-25T09:58:47;6.18;;;2.45;;
16624;SDS011;8426;48.496;9.098;2022-11-25T10:03:55;6.35;;;1.98;;
16624;SDS011;8426;48.496;9.098;2022-11-25T10:09:10;7.20;;;2.33;;
16624;SDS011;8426;48.496;9.098;2022-11-25T10:14:18;7.85;;;2.20;;
16624;SDS011;8426;48.496;9.098;2022-11-25T10:19:33;4.72;;;1.98;;
16624;SDS011;8426;48.496;9.098;2022-11-25T10:24:42;6.38;;;2.50;;
16624;SDS011;8426;48.496;9.098;2022-11-25T10:29:48;7.00;;;3.15;;
16624;SDS011;8426;48.496;9.098;2022-11-25T10:35:04;12.57;;;3.78;;
16624;SDS011;8426;48.496;9.098;2022-11-25T10:40:16;8.57;;;2.60;;
16624;SDS011;8426;48.496;9.098;2022-11-25T10:45:21;5.28;;;2.40;;
16624;SDS011;8426;48.496;9.098;2022-11-25T10:50:36;6.07;;;3.13;;
16624;SDS011;8426;48.496;9.098;2022-11-25T10:55:57;6.38;;;2.53;;
16624;SDS011;8426;48.496;9.098;2022-11-25T11:01:21;5.53;;;2.30;;
16624;SDS011;8426;48.496;9.098;2022-11-25T11:06:27;5.63;;;2.40;;
16624;SDS011;8426;48.496;9.098;2022-11-25T11:11:35;5.38;;;2.10;;
16624;SDS011;8426;48.496;9.098;2022-11-25T11:16:50;7.82;;;2.88;;
16624;SDS011;8426;48.496;9.098;2022-11-25T11:21:55;7.93;;;2.50;;
16624;SDS011;8426;48.496;9.098;2022-11-25T11:27:18;8.43;;;3.40;;
16624;SDS011;8426;48.496;9.098;2022-11-25T11:32:24;8.55;;;3.10;;
16624;SDS011;8426;48.496;9.098;2022-11-25T11:37:35;7.50;;;2.78;;
16624;SDS011;8426;48.496;9.098;2022-11-25T11:42:47;7.20;;;3.17;;
16624;SDS011;8426;48.496;9.098;2022-11-25T11:48:06;8.13;;;3.15;;
16624;SDS011;8426;48.496;9.098;2022-11-25T11:53:16;9.25;;;3.08;;
16624;SDS011;8426;48.496;9.098;2022-11-25T11:58:40;9.15;;;3.38;;
16624;SDS011;8426;48.496;9.098;2022-11-25T12:03:54;6.90;;;3.15;;
16624;SDS011;8426;48.496;9.098;2022-11-25T12:09:01;6.65;;;2.75;;
16624;SDS011;8426;48.496;9.098;2022-11-25T12:14:13;5.30;;;2.70;;
16624;SDS011;8426;48.496;9.098;2022-11-25T12:19:29;7.35;;;2.67;;
16624;SDS011;8426;48.496;9.098;2022-11-25T12:24:41;8.23;;;2.28;;
16624;SDS011;8426;48.496;9.098;2022-11-25T12:29:54;5.10;;;1.92;;
16624;SDS011;8426;48.496;9.098;2022-11-25T12:35:04;4.80;;;1.77;;
16624;SDS011;8426;48.496;9.098;2022-11-25T12:40:19;3.78;;;1.55;;
16624;SDS011;8426;48.496;9.098;2022-11-25T12:45:29;3.60;;;1.40;;
16624;SDS011;8426;48.496;9.098;2022-11-25T12:50:36;5.78;;;1.30;;
16624;SDS011;8426;48.496;9.098;2022-11-25T12:55:49;4.75;;;1.65;;
16624;SDS011;8426;48.496;9.098;2022-11-25T13:01:07;1.80;;;0.95;;
16624;SDS011;8426;48.496;9.098;2022-11-25T13:06:27;7.60;;;1.20;;
16624;SDS011;8426;48.496;9.098;2022-11-25T13:17:22;2.75;;;1.05;;
16624;SDS011;8426;48.496;9.098;2022-11-25T13:22:27;1.40;;;0.90;;
16624;SDS011;8426;48.496;9.098;2022-11-25T13:27:32;3.00;;;1.17;;
16624;SDS011;8426;48.496;9.098;2022-11-25T13:32:58;1.77;;;1.00;;
16624;SDS011;8426;48.496;9.098;2022-11-25T13:38:58;2.17;;;1.23;;
16624;SDS011;8426;48.496;9.098;2022-11-25T13:44:12;3.47;;;1.27;;
16624;SDS011;8426;48.496;9.098;2022-11-25T13:49:31;3.67;;;1.10;;
16624;SDS011;8426;48.496;9.098;2022-11-25T13:54:42;6.03;;;1.00;;
16624;SDS011;8426;48.496;9.098;2022-11-25T13:59:49;3.85;;;1.35;;
16624;SDS011;8426;48.496;9.098;2022-11-25T14:04:57;4.28;;;1.38;;
16624;SDS011;8426;48.496;9.098;2022-11-25T14:10:12;3.63;;;1.88;;
16624;SDS011;8426;48.496;9.098;2022-11-25T14:15:31;6.65;;;2.00;;
16624;SDS011;8426;48.496;9.098;2022-11-25T14:20:49;4.63;;;2.00;;
16624;SDS011;8426;48.496;9.098;2022-11-25T14:26:02;4.60;;;2.17;;
16624;SDS011;8426;48.496;9.098;2022-11-25T14:31:35;6.30;;;1.95;;
16624;SDS011;8426;48.496;9.098;2022-11-25T14:36:46;2.30;;;1.35;;
16624;SDS011;8426;48.496;9.098;2022-11-25T14:41:55;3.22;;;1.38;;
16624;SDS011;8426;48.496;9.098;2022-11-25T14:47:03;6.85;;;1.70;;
16624;SDS011;8426;48.496;9.098;2022-11-25T14:52:08;4.70;;;1.23;;
16624;SDS011;8426;48.496;9.098;2022-11-25T14:57:18;5.53;;;0.90;;
16624;SDS011;8426;48.496;9.098;2022-11-25T15:02:25;5.13;;;1.52;;
16624;SDS011;8426;48.496;9.098;2022-11-25T15:07:32;3.97;;;1.67;;
16624;SDS011;8426;48.496;9.098;2022-11-25T15:12:37;6.78;;;1.25;;
16624;SDS011;8426;48.496;9.098;2022-11-25T15:17:47;6.22;;;1.55;;
16624;SDS011;8426;48.496;9.098;2022-11-25T15:22:53;6.03;;;1.30;;
16624;SDS011;8426;48.496;9.098;2022-11-25T15:27:56;6.28;;;1.35;;
16624;SDS011;8426;48.496;9.098;2022-11-25T15:33:01;5.53;;;1.95;;
16624;SDS011;8426;48.496;9.098;2022-11-25T15:38:17;6.97;;;1.85;;
16624;SDS011;8426;48.496;9.098;2022-11-25T15:43:22;5.80;;;1.58;;
16624;SDS011;8426;48.496;9.098;2022-11-25T15:48:28;5.20;;;1.45;;
16624;SDS011;8426;48.496;9.098;2022-11-25T15:53:38;5.10;;;1.63;;
16624;SDS011;8426;48.496;9.098;2022-11-25T15:58:45;4.97;;;1.20;;
16624;SDS011;8426;48.496;9.098;2022-11-25T16:03:50;1.52;;;0.73;;
16624;SDS011;8426;48.496;9.098;2022-11-25T16:08:57;1.27;;;0.93;;
16624;SDS011;8426;48.496;9.098;2022-11-25T16:14:15;7.60;;;1.15;;
16624;SDS011;8426;48.496;9.098;2022-11-25T16:19:19;4.05;;;0.73;;
16624;SDS011;8426;48.496;9.098;2022-11-25T16:24:49;6.15;;;0.98;;
16624;SDS011;8426;48.496;9.098;2022-11-25T16:30:06;8.35;;;1.15;;
16624;SDS011;8426;48.496;9.098;2022-11-25T16:35:19;3.63;;;1.40;;
16624;SDS011;8426;48.496;9.098;2022-11-25T16:40:25;4.78;;;1.45;;
16624;SDS011;8426;48.496;9.098;2022-11-25T16:45:30;3.10;;;0.90;;
16624;SDS011;8426;48.496;9.098;2022-11-25T16:50:34;8.52;;;1.60;;
16624;SDS011;8426;48.496;9.098;2022-11-25T16:55:40;4.22;;;1.52;;
16624;SDS011;8426;48.496;9.098;2022-11-25T17:00:47;6.53;;;1.25;;
16624;SDS011;8426;48.496;9.098;2022-11-25T17:05:52;8.15;;;1.92;;
16624;SDS011;8426;48.496;9.098;2022-11-25T17:10:58;1.58;;;0.95;;
16624;SDS011;8426;48.496;9.098;2022-11-25T17:16:02;2.97;;;1.10;;
16624;SDS011;8426;48.496;9.098;2022-11-25T17:21:13;4.05;;;1.60;;
16624;SDS011;8426;48.496;9.098;2022-11-25T17:26:20;3.47;;;1.30;;
16624;SDS011;8426;48.496;9.098;2022-11-25T17:31:28;9.23;;;1.75;;
16624;SDS011;8426;48.496;9.098;2022-11-25T17:36:33;4.55;;;1.38;;
16624;SDS011;8426;48.496;9.098;2022-11-25T17:41:42;3.90;;;1.08;;
16624;SDS011;8426;48.496;9.098;2022-11-25T17:46:47;5.35;;;1.25;;
16624;SDS011;8426;48.496;9.098;2022-11-25T17:51:52;3.17;;;1.08;;
16624;SDS011;8426;48.496;9.098;2022-11-25T17:56:58;3.80;;;1.42;;
16624;SDS011;8426;48.496;9.098;2022-11-25T18:02:02;4.90;;;1.45;;
16624;SDS011;8426;48.496;9.098;2022-11-25T18:07:08;3.15;;;1.23;;
16624;SDS011;8426;48.496;9.098;2022-11-25T18:12:15;3.55;;;1.00;;
16624;SDS011;8426;48.496;9.098;2022-11-25T18:17:26;5.15;;;1.25;;
16624;SDS011;8426;48.496;9.098;2022-11-25T18:22:30;5.22;;;1.33;;
16624;SDS011;8426;48.496;9.098;2022-11-25T18:27:35;5.57;;;1.23;;
16624;SDS011;8426;48.496;9.098;2022-11-25T18:32:40;9.43;;;2.80;;
16624;SDS011;8426;48.496;9.098;2022-11-25T18:37:43;9.15;;;3.53;;
16624;SDS011;8426;48.496;9.098;2022-11-25T18:42:49;6.93;;;1.65;;
16624;SDS011;8426;48.496;9.098;2022-11-25T18:47:56;9.32;;;2.00;;
16624;SDS011;8426;48.496;9.098;2022-11-25T18:52:59;4.78;;;1.30;;
16624;SDS011;8426;48.496;9.098;2022-11-25T18:58:07;3.08;;;1.40;;
16624;SDS011;8426;48.496;9.098;2022-11-25T19:03:23;8.98;;;3.30;;
16624;SDS011;8426;48.496;9.098;2022-11-25T19:08:32;6.30;;;2.38;;
16624;SDS011;8426;48.496;9.098;2022-11-25T19:13:42;8.80;;;2.17;;
16624;SDS011;8426;48.496;9.098;2022-11-25T19:23:58;13.13;;;2.35;;
16624;SDS011;8426;48.496;9.098;2022-11-25T19:29:13;9.77;;;2.10;;
16624;SDS011;8426;48.496;9.098;2022-11-25T19:34:23;8.40;;;2.05;;
16624;SDS011;8426;48.496;9.098;2022-11-25T19:39:32;5.55;;;1.77;;
16624;SDS011;8426;48.496;9.098;2022-11-25T19:44:41;4.90;;;1.88;;
16624;SDS011;8426;48.496;9.098;2022-11-25T19:49:45;5.13;;;1.70;;
16624;SDS011;8426;48.496;9.098;2022-11-25T19:54:50;5.50;;;2.08;;
16624;SDS011;8426;48.496;9.098;2022-11-25T19:59:56;4.78;;;1.85;;
16624;SDS011;8426;48.496;9.098;2022-11-25T20:04:59;9.70;;;1.77;;
16624;SDS011;8426;48.496;9.098;2022-11-25T20:10:10;8.63;;;2.17;;
16624;SDS011;8426;48.496;9.098;2022-11-25T20:15:23;10.07;;;1.73;;
16624;SDS011;8426;48.496;9.098;2022-11-25T20:20:28;8.85;;;1.80;;
16624;SDS011;8426;48.496;9.098;2022-11-25T20:25:35;7.75;;;2.33;;
16624;SDS011;8426;48.496;9.098;2022-11-25T20:31:02;7.90;;;2.00;;
16624;SDS011;8426;48.496;9.098;2022-11-25T20:36:10;5.32;;;1.92;;
16624;SDS011;8426;48.496;9.098;2022-11-25T20:41:28;4.38;;;1.70;;
16624;SDS011;8426;48.496;9.098;2022-11-25T20:46:37;5.47;;;1.98;;
16624;SDS011;8426;48.496;9.098;2022-11-25T20:51:41;7.32;;;2.88;;
16624;SDS011;8426;48.496;9.098;2022-11-25T20:56:49;8.13;;;3.07;;
16624;SDS011;8426;48.496;9.098;2022-11-25T21:01:54;6.45;;;3.30;;
16624;SDS011;8426;48.496;9.098;2022-11-25T21:06:58;7.03;;;2.83;;
16624;SDS011;8426;48.496;9.098;2022-11-25T21:12:02;9.83;;;2.33;;
16624;SDS011;8426;48.496;9.098;2022-11-25T21:17:10;3.17;;;2.15;;
16624;SDS011;8426;48.496;9.098;2022-11-25T21:22:17;8.63;;;2.40;;
16624;SDS011;8426;48.496;9.098;2022-11-25T21:27:22;5.63;;;2.10;;
16624;SDS011;8426;48.496;9.098;2022-11-25T21:32:28;4.77;;;2.07;;
16624;SDS011;8426;48.496;9.098;2022-11-25T21:37:32;6.33;;;1.90;;
16624;SDS011;8426;48.496;9.098;2022-11-25T21:42:38;5.33;;;2.43;;
16624;SDS011;8426;48.496;9.098;2022-11-25T21:47:43;3.97;;;2.17;;
16624;SDS011;8426;48.496;9.098;2022-11-25T21:52:46;8.00;;;2.77;;
16624;SDS011;8426;48.496;9.098;2022-11-25T21:57:51;8.50;;;2.80;;
16624;SDS011;8426;48.496;9.098;2022-11-25T22:03:16;5.43;;;2.40;;
16624;SDS011;8426;48.496;9.098;2022-11-25T22:08:51;6.30;;;3.43;;
16624;SDS011;8426;48.496;9.098;2022-11-25T22:14:01;5.57;;;2.97;;
16624;SDS011;8426;48.496;9.098;2022-11-25T22:19:24;7.53;;;3.03;;
16624;SDS011;8426;48.496;9.098;2022-11-25T22:24:29;8.70;;;3.37;;
16624;SDS011;8426;48.496;9.098;2022-11-25T22:29:39;8.30;;;2.80;;
16624;SDS011;8426;48.496;9.098;2022-11-25T22:34:46;24.27;;;4.83;;
16624;SDS011;8426;48.496;9.098;2022-11-25T22:39:49;17.03;;;4.30;;
16624;SDS011;8426;48.496;9.098;2022-11-25T22:44:53;18.17;;;5.37;;
16624;SDS011;8426;48.496;9.098;2022-11-25T22:49:59;10.83;;;4.00;;
16624;SDS011;8426;48.496;9.098;2022-11-25T22:55:10;13.40;;;4.53;;
16624;SDS011;8426;48.496;9.098;2022-11-25T23:00:20;10.10;;;3.87;;
16624;SDS011;8426;48.496;9.098;2022-11-25T23:05:26;11.33;;;4.23;;
16624;SDS011;8426;48.496;9.098;2022-11-25T23:10:34;10.53;;;3.77;;
16624;SDS011;8426;48.496;9.098;2022-11-25T23:15:37;14.37;;;3.00;;
16624;SDS011;8426;48.496;9.098;2022-11-25T23:20:44;11.40;;;3.10;;
16624;SDS011;8426;48.496;9.098;2022-11-25T23:25:51;13.80;;;3.90;;
16624;SDS011;8426;48.496;9.098;2022-11-25T23:30:59;9.77;;;3.33;;
16624;SDS011;8426;48.496;9.098;2022-11-25T23:36:07;12.95;;;3.40;;
16624;SDS011;8426;48.496;9.098;2022-11-25T23:41:16;10.90;;;3.15;;
16624;SDS011;8426;48.496;9.098;2022-11-25T23:46:23;8.48;;;3.10;;
16624;SDS011;8426;48.496;9.098;2022-11-25T23:51:35;10.43;;;3.33;;
16624;SDS011;8426;48.496;9.098;2022-11-25T23:56:39;7.68;;;2.95;;
